sensor_id;sensor_type;location;lat;lon;timestamp;pressure;altitude;pressure_sealevel;temperature;humidity
13954;BME280;7049;49.444;8.522;2023-03-04T00:03:52;79500.84;;;-3.47;73.38
13954;BME280;7049;49.444;8.522;2023-03-04T00:08:55;79505.03;;;-3.47;73.36
13954;BME280;7049;49.444;8.522;2023-03-04T00:13:57;79513.41;;;-3.47;73.95
13954;BME280;7049;49.444;8.522;2023-03-04T00:18:58;79525.94;;;-3.47;74.26
13954;BME280;7049;49.444;8.522;2023-03-04T00:24:01;79534.31;;;-3.47;74.76
13954;BME280;7049;49.444;8.522;2023-03-04T00:29:03;79540.59;;;-3.47;74.99
13954;BME280;7049;49.444;8.522;2023-03-04T00:34:04;79553.16;;;-3.47;75.03
13954;BME280;7049;49.444;8.522;2023-03-04T00:39:07;79559.44;;;-3.47;75.23
13954;BME280;7049;49.444;8.522;2023-03-04T00:44:08;79567.81;;;-3.47;75.95
13954;BME280;7049;49.444;8.522;2023-03-04T00:49:10;79574.09;;;-3.47;76.16
13954;BME280;7049;49.444;8.522;2023-03-04T00:54:13;79580.38;;;-3.47;76.03
13954;BME280;7049;49.444;8.522;2023-03-04T00:59:14;79588.75;;;-3.47;76.37
13954;BME280;7049;49.444;8.522;2023-03-04T01:04:15;79590.84;;;-3.47;76.78
13954;BME280;7049;49.444;8.522;2023-03-04T01:09:18;79595.03;;;-3.47;76.91
13954;BME280;7049;49.444;8.522;2023-03-04T01:14:20;79605.50;;;-3.47;77.35
13954;BME280;7049;49.444;8.522;2023-03-04T01:19:21;79603.41;;;-3.47;77.52
13954;BME280;7049;49.444;8.522;2023-03-04T01:24:24;79605.50;;;-3.47;77.57
13954;BME280;7049;49.444;8.522;2023-03-04T01:29:26;79603.41;;;-3.47;77.66
13954;BME280;7049;49.444;8.522;2023-03-04T01:34:27;79609.69;;;-3.47;77.61
13954;BME280;7049;49.444;8.522;2023-03-04T01:39:30;79607.59;;;-3.47;78.06
13954;BME280;7049;49.444;8.522;2023-03-04T01:44:32;79607.59;;;-3.47;78.04
13954;BME280;7049;49.444;8.522;2023-03-04T01:49:33;79618.06;;;-3.47;78.42
13954;BME280;7049;49.444;8.522;2023-03-04T01:54:36;79618.06;;;-3.47;78.36
13954;BME280;7049;49.444;8.522;2023-03-04T01:59:37;79620.16;;;-3.47;78.97
13954;BME280;7049;49.444;8.522;2023-03-04T02:04:40;79622.25;;;-3.47;78.64
13954;BME280;7049;49.444;8.522;2023-03-04T02:09:43;79626.44;;;-3.47;78.59
13954;BME280;7049;49.444;8.522;2023-03-04T02:14:45;79630.63;;;-3.47;78.86
13954;BME280;7049;49.444;8.522;2023-03-04T02:19:50;79639.00;;;-3.47;79.10
13954;BME280;7049;49.444;8.522;2023-03-04T02:24:57;79641.09;;;-3.47;79.33
13954;BME280;7049;49.444;8.522;2023-03-04T02:30:02;79639.00;;;-3.47;79.61
13954;BME280;7049;49.444;8.522;2023-03-04T02:35:05;79643.19;;;-3.47;79.52
13954;BME280;7049;49.444;8.522;2023-03-04T02:40:08;79647.38;;;-3.47;79.71
13954;BME280;7049;49.444;8.522;2023-03-04T02:45:40;79651.56;;;-3.47;79.41
13954;BME280;7049;49.444;8.522;2023-03-04T02:50:45;79668.31;;;-3.47;79.27
13954;BME280;7049;49.444;8.522;2023-03-04T02:55:47;79676.69;;;-3.47;78.87
13954;BME280;7049;49.444;8.522;2023-03-04T03:00:50;79676.69;;;-3.47;78.44
13954;BME280;7049;49.444;8.522;2023-03-04T03:05:52;79676.69;;;-3.47;78.32
13954;BME280;7049;49.444;8.522;2023-03-04T03:10:54;79680.88;;;-3.47;78.18
13954;BME280;7049;49.444;8.522;2023-03-04T03:15:56;79693.44;;;-3.47;78.41
13954;BME280;7049;49.444;8.522;2023-03-04T03:20:58;79697.63;;;-3.47;78.07
13954;BME280;7049;49.444;8.522;2023-03-04T03:25:59;79701.81;;;-3.47;77.90
13954;BME280;7049;49.444;8.522;2023-03-04T03:31:02;79710.19;;;-3.47;77.69
13954;BME280;7049;49.444;8.522;2023-03-04T03:36:05;79724.84;;;-3.47;78.04
13954;BME280;7049;49.444;8.522;2023-03-04T03:41:06;79731.13;;;-3.47;78.16
13954;BME280;7049;49.444;8.522;2023-03-04T03:46:09;79737.41;;;-3.47;78.52
13954;BME280;7049;49.444;8.522;2023-03-04T03:51:10;79752.06;;;-3.47;79.24
13954;BME280;7049;49.444;8.522;2023-03-04T03:56:12;79754.16;;;-3.47;79.60
13954;BME280;7049;49.444;8.522;2023-03-04T04:01:14;79764.63;;;-3.47;79.78
13954;BME280;7049;49.444;8.522;2023-03-04T04:06:16;79770.91;;;-3.47;79.90
13954;BME280;7049;49.444;8.522;2023-03-04T04:11:17;79770.91;;;-3.47;79.88
13954;BME280;7049;49.444;8.522;2023-03-04T04:16:20;79781.38;;;-3.47;79.45
13954;BME280;7049;49.444;8.522;2023-03-04T04:21:22;79785.56;;;-3.47;79.55
13954;BME280;7049;49.444;8.522;2023-03-04T04:26:24;79789.75;;;-3.47;79.33
13954;BME280;7049;49.444;8.522;2023-03-04T04:31:27;79787.66;;;-3.47;79.25
13954;BME280;7049;49.444;8.522;2023-03-04T04:36:28;79800.22;;;-3.47;78.99
13954;BME280;7049;49.444;8.522;2023-03-04T04:41:35;79804.41;;;-3.47;78.73
13954;BME280;7049;49.444;8.522;2023-03-04T04:46:38;79814.88;;;-3.47;78.77
13954;BME280;7049;49.444;8.522;2023-03-04T04:51:39;79825.34;;;-3.47;79.01
13954;BME280;7049;49.444;8.522;2023-03-04T04:56:41;79835.81;;;-3.47;78.84
13954;BME280;7049;49.444;8.522;2023-03-04T05:01:44;79846.28;;;-3.47;78.60
13954;BME280;7049;49.444;8.522;2023-03-04T05:06:45;79848.38;;;-3.47;78.74
13954;BME280;7049;49.444;8.522;2023-03-04T05:11:47;79858.84;;;-3.47;78.82
13954;BME280;7049;49.444;8.522;2023-03-04T05:16:49;79865.13;;;-3.47;79.04
13954;BME280;7049;49.444;8.522;2023-03-04T05:21:52;79867.22;;;-3.47;79.59
13954;BME280;7049;49.444;8.522;2023-03-04T05:26:53;79867.22;;;-3.47;80.36
13954;BME280;7049;49.444;8.522;2023-03-04T05:31:56;79865.13;;;-3.47;81.36
13954;BME280;7049;49.444;8.522;2023-03-04T05:36:57;79856.75;;;-3.47;82.92
13954;BME280;7049;49.444;8.522;2023-03-04T05:41:59;79856.75;;;-3.47;83.91
13954;BME280;7049;49.444;8.522;2023-03-04T05:47:01;79846.28;;;-3.47;84.46
13954;BME280;7049;49.444;8.522;2023-03-04T05:52:03;79844.19;;;-3.47;85.12
13954;BME280;7049;49.444;8.522;2023-03-04T05:57:04;79831.63;;;-3.47;85.33
13954;BME280;7049;49.444;8.522;2023-03-04T06:02:07;79827.44;;;-3.47;85.74
13954;BME280;7049;49.444;8.522;2023-03-04T06:07:08;79827.44;;;-3.47;86.43
13954;BME280;7049;49.444;8.522;2023-03-04T06:12:10;79819.06;;;-3.47;87.05
13954;BME280;7049;49.444;8.522;2023-03-04T06:17:13;79829.53;;;-3.47;87.50
13954;BME280;7049;49.444;8.522;2023-03-04T06:22:14;79812.78;;;-3.47;87.92
13954;BME280;7049;49.444;8.522;2023-03-04T06:27:16;79816.97;;;-3.47;87.74
13954;BME280;7049;49.444;8.522;2023-03-04T06:32:18;79808.59;;;-3.47;88.55
13954;BME280;7049;49.444;8.522;2023-03-04T06:37:20;79808.59;;;-3.47;88.92
13954;BME280;7049;49.444;8.522;2023-03-04T06:42:21;79800.22;;;-3.47;88.90
13954;BME280;7049;49.444;8.522;2023-03-04T06:47:24;79798.13;;;-3.47;88.96
13954;BME280;7049;49.444;8.522;2023-03-04T06:52:26;79798.13;;;-3.47;88.61
13954;BME280;7049;49.444;8.522;2023-03-04T06:57:27;79793.94;;;-3.47;88.29
13954;BME280;7049;49.444;8.522;2023-03-04T07:02:30;79777.19;;;-3.47;88.50
13954;BME280;7049;49.444;8.522;2023-03-04T07:07:31;79777.19;;;-3.47;88.30
13954;BME280;7049;49.444;8.522;2023-03-04T07:12:33;79770.91;;;-3.47;88.23
13954;BME280;7049;49.444;8.522;2023-03-04T07:17:35;79766.72;;;-3.47;88.80
13954;BME280;7049;49.444;8.522;2023-03-04T07:22:37;79764.63;;;-3.47;89.14
13954;BME280;7049;49.444;8.522;2023-03-04T07:27:38;79756.25;;;-3.47;89.39
13954;BME280;7049;49.444;8.522;2023-03-04T07:32:41;79756.25;;;-3.47;89.40
13954;BME280;7049;49.444;8.522;2023-03-04T07:37:42;79747.88;;;-3.47;89.33
13954;BME280;7049;49.444;8.522;2023-03-04T07:42:48;79745.78;;;-3.47;89.41
13954;BME280;7049;49.444;8.522;2023-03-04T07:47:51;79743.69;;;-3.47;89.40
13954;BME280;7049;49.444;8.522;2023-03-04T07:52:53;79735.31;;;-3.47;89.44
13954;BME280;7049;49.444;8.522;2023-03-04T07:57:54;79731.13;;;-3.47;89.06
13954;BME280;7049;49.444;8.522;2023-03-04T08:02:57;79726.94;;;-3.47;89.06
13954;BME280;7049;49.444;8.522;2023-03-04T08:07:59;79720.66;;;-3.47;89.18
13954;BME280;7049;49.444;8.522;2023-03-04T08:13:00;79716.47;;;-3.47;89.40
13954;BME280;7049;49.444;8.522;2023-03-04T08:18:03;79706.00;;;-3.47;89.39
13954;BME280;7049;49.444;8.522;2023-03-04T08:23:04;79708.09;;;-3.47;89.52
13954;BME280;7049;49.444;8.522;2023-03-04T08:28:07;79701.81;;;-3.47;89.27
13954;BME280;7049;49.444;8.522;2023-03-04T08:33:10;79693.44;;;-3.47;89.17
13954;BME280;7049;49.444;8.522;2023-03-04T08:38:11;79693.44;;;-3.47;89.03
13954;BME280;7049;49.444;8.522;2023-03-04T08:43:13;79678.78;;;-3.47;89.10
13954;BME280;7049;49.444;8.522;2023-03-04T08:48:16;79670.41;;;-3.47;88.82
13954;BME280;7049;49.444;8.522;2023-03-04T08:53:19;79668.31;;;-3.47;88.51
13954;BME280;7049;49.444;8.522;2023-03-04T08:58:20;79662.03;;;-3.47;88.40
13954;BME280;7049;49.444;8.522;2023-03-04T09:03:23;79662.03;;;-3.47;88.53
13954;BME280;7049;49.444;8.522;2023-03-04T09:08:24;79649.47;;;-3.47;88.42
13954;BME280;7049;49.444;8.522;2023-03-04T09:13:28;79632.72;;;-3.47;88.09
13954;BME280;7049;49.444;8.522;2023-03-04T09:18:33;79624.34;;;-3.47;87.48
13954;BME280;7049;49.444;8.522;2023-03-04T09:23:34;79620.16;;;-3.47;87.69
13954;BME280;7049;49.444;8.522;2023-03-04T09:28:36;79609.69;;;-3.47;86.97
13954;BME280;7049;49.444;8.522;2023-03-04T09:33:39;79603.41;;;-3.47;86.78
13954;BME280;7049;49.444;8.522;2023-03-04T09:38:42;79590.84;;;-3.47;86.44
13954;BME280;7049;49.444;8.522;2023-03-04T09:43:44;79574.09;;;-3.47;85.71
13954;BME280;7049;49.444;8.522;2023-03-04T09:48:50;79569.91;;;-3.47;85.53
13954;BME280;7049;49.444;8.522;2023-03-04T09:54:04;79567.81;;;-3.47;84.97
13954;BME280;7049;49.444;8.522;2023-03-04T09:59:14;79559.44;;;-3.47;84.45
13954;BME280;7049;49.444;8.522;2023-03-04T10:04:28;79551.06;;;-3.47;84.33
13954;BME280;7049;49.444;8.522;2023-03-04T10:09:41;79546.88;;;-3.47;83.58
13954;BME280;7049;49.444;8.522;2023-03-04T10:14:48;79542.69;;;-3.47;84.02
13954;BME280;7049;49.444;8.522;2023-03-04T10:19:57;79532.22;;;-3.47;83.74
13954;BME280;7049;49.444;8.522;2023-03-04T10:25:13;79515.47;;;-3.47;83.11
13954;BME280;7049;49.444;8.522;2023-03-04T10:30:37;79509.19;;;-3.47;82.56
13954;BME280;7049;49.444;8.522;2023-03-04T10:35:44;79505.03;;;-3.47;82.35
13954;BME280;7049;49.444;8.522;2023-03-04T10:40:48;79484.09;;;-3.47;82.01
13954;BME280;7049;49.444;8.522;2023-03-04T10:45:53;79479.91;;;-3.47;81.86
13954;BME280;7049;49.444;8.522;2023-03-04T10:51:10;79475.72;;;-3.47;80.80
13954;BME280;7049;49.444;8.522;2023-03-04T10:56:34;79463.16;;;-3.47;81.23
13954;BME280;7049;49.444;8.522;2023-03-04T11:01:36;79444.31;;;-3.47;80.86
13954;BME280;7049;49.444;8.522;2023-03-04T11:06:40;79433.84;;;-3.47;80.81
13954;BME280;7049;49.444;8.522;2023-03-04T11:11:42;79419.19;;;-3.47;80.25
13954;BME280;7049;49.444;8.522;2023-03-04T11:16:52;79400.34;;;-3.47;79.77
13954;BME280;7049;49.444;8.522;2023-03-04T11:21:56;79391.97;;;-3.47;78.83
13954;BME280;7049;49.444;8.522;2023-03-04T11:27:02;79375.22;;;-3.47;77.71
13954;BME280;7049;49.444;8.522;2023-03-04T11:32:08;79362.66;;;-3.47;77.11
13954;BME280;7049;49.444;8.522;2023-03-04T11:37:17;79350.09;;;-3.47;76.75
13954;BME280;7049;49.444;8.522;2023-03-04T11:42:30;79337.53;;;-3.47;75.56
13954;BME280;7049;49.444;8.522;2023-03-04T11:47:41;79324.97;;;-3.47;75.23
13954;BME280;7049;49.444;8.522;2023-03-04T11:58:36;79295.66;;;-3.47;72.80
13954;BME280;7049;49.444;8.522;2023-03-04T12:04:16;79278.94;;;-3.47;70.20
13954;BME280;7049;49.444;8.522;2023-03-04T12:09:39;79264.28;;;-3.47;71.06
13954;BME280;7049;49.444;8.522;2023-03-04T12:14:46;79251.72;;;-3.47;69.91
13954;BME280;7049;49.444;8.522;2023-03-04T12:20:15;79258.00;;;-3.47;69.35
13954;BME280;7049;49.444;8.522;2023-03-04T12:25:36;79249.63;;;-3.47;68.80
13954;BME280;7049;49.444;8.522;2023-03-04T12:30:51;79243.34;;;-3.47;69.07
13954;BME280;7049;49.444;8.522;2023-03-04T12:36:05;79224.50;;;-3.47;68.37
13954;BME280;7049;49.444;8.522;2023-03-04T12:41:21;79228.69;;;-3.47;68.31
13954;BME280;7049;49.444;8.522;2023-03-04T12:46:36;79216.13;;;-3.47;68.93
13954;BME280;7049;49.444;8.522;2023-03-04T12:51:46;79201.47;;;-3.47;69.10
13954;BME280;7049;49.444;8.522;2023-03-04T12:56:53;79191.00;;;-3.47;68.68
13954;BME280;7049;49.444;8.522;2023-03-04T13:02:10;79186.81;;;-3.47;68.67
13954;BME280;7049;49.444;8.522;2023-03-04T13:07:22;79186.81;;;-3.47;68.47
13954;BME280;7049;49.444;8.522;2023-03-04T13:12:46;79186.81;;;-3.47;68.35
13954;BME280;7049;49.444;8.522;2023-03-04T13:17:49;79176.34;;;-3.47;67.99
13954;BME280;7049;49.444;8.522;2023-03-04T13:22:55;79176.34;;;-3.47;66.91
13954;BME280;7049;49.444;8.522;2023-03-04T13:28:20;79178.44;;;-3.47;67.29
13954;BME280;7049;49.444;8.522;2023-03-04T13:33:53;79178.44;;;-3.47;67.17
13954;BME280;7049;49.444;8.522;2023-03-04T13:38:57;79178.44;;;-3.47;67.56
13954;BME280;7049;49.444;8.522;2023-03-04T13:44:05;79184.72;;;-3.47;67.99
13954;BME280;7049;49.444;8.522;2023-03-04T13:49:27;79174.25;;;-3.47;68.14
13954;BME280;7049;49.444;8.522;2023-03-04T13:54:30;79165.88;;;-3.47;68.30
13954;BME280;7049;49.444;8.522;2023-03-04T13:59:38;79161.69;;;-3.47;68.43
13954;BME280;7049;49.444;8.522;2023-03-04T14:04:44;79151.22;;;-3.47;68.06
13954;BME280;7049;49.444;8.522;2023-03-04T14:09:54;79149.13;;;-3.47;67.83
13954;BME280;7049;49.444;8.522;2023-03-04T14:14:57;79151.22;;;-3.47;67.16
13954;BME280;7049;49.444;8.522;2023-03-04T14:20:02;79151.22;;;-3.47;66.86
13954;BME280;7049;49.444;8.522;2023-03-04T14:25:14;79149.13;;;-3.47;67.45
13954;BME280;7049;49.444;8.522;2023-03-04T14:30:22;79140.75;;;-3.47;67.21
13954;BME280;7049;49.444;8.522;2023-03-04T14:35:26;79151.22;;;-3.47;67.55
13954;BME280;7049;49.444;8.522;2023-03-04T14:40:30;79149.13;;;-3.47;67.90
13954;BME280;7049;49.444;8.522;2023-03-04T14:45:34;79136.59;;;-3.47;67.52
13954;BME280;7049;49.444;8.522;2023-03-04T14:50:46;79134.50;;;-3.47;67.91
13954;BME280;7049;49.444;8.522;2023-03-04T14:55:57;79136.59;;;-3.47;67.96
13954;BME280;7049;49.444;8.522;2023-03-04T15:01:12;79134.50;;;-3.47;68.58
13954;BME280;7049;49.444;8.522;2023-03-04T15:06:18;79134.50;;;-3.47;68.57
13954;BME280;7049;49.444;8.522;2023-03-04T15:11:23;79124.03;;;-3.47;68.52
13954;BME280;7049;49.444;8.522;2023-03-04T15:16:27;79117.75;;;-3.47;68.24
13954;BME280;7049;49.444;8.522;2023-03-04T15:21:34;79101.00;;;-3.47;67.82
13954;BME280;7049;49.444;8.522;2023-03-04T15:26:38;79096.81;;;-3.47;67.56
13954;BME280;7049;49.444;8.522;2023-03-04T15:31:41;79098.91;;;-3.47;68.10
13954;BME280;7049;49.444;8.522;2023-03-04T15:36:46;79092.63;;;-3.47;67.70
13954;BME280;7049;49.444;8.522;2023-03-04T15:41:48;79086.34;;;-3.47;67.40
13954;BME280;7049;49.444;8.522;2023-03-04T15:46:50;79082.16;;;-3.47;67.71
13954;BME280;7049;49.444;8.522;2023-03-04T15:51:53;79086.34;;;-3.47;67.80
13954;BME280;7049;49.444;8.522;2023-03-04T15:56:54;79073.78;;;-3.47;67.35
13954;BME280;7049;49.444;8.522;2023-03-04T16:01:57;79084.25;;;-3.47;67.87
13954;BME280;7049;49.444;8.522;2023-03-04T16:07:00;79084.25;;;-3.47;68.18
13954;BME280;7049;49.444;8.522;2023-03-04T16:12:01;79082.16;;;-3.47;68.31
13954;BME280;7049;49.444;8.522;2023-03-04T16:17:03;79086.34;;;-3.47;68.54
13954;BME280;7049;49.444;8.522;2023-03-04T16:22:07;79086.34;;;-3.47;68.62
13954;BME280;7049;49.444;8.522;2023-03-04T16:27:09;79086.34;;;-3.47;69.12
13954;BME280;7049;49.444;8.522;2023-03-04T16:32:11;79090.53;;;-3.47;69.07
13954;BME280;7049;49.444;8.522;2023-03-04T16:37:17;79090.53;;;-3.47;69.42
13954;BME280;7049;49.444;8.522;2023-03-04T16:42:20;79073.78;;;-3.47;69.40
13954;BME280;7049;49.444;8.522;2023-03-04T16:47:22;79073.78;;;-3.47;68.94
13954;BME280;7049;49.444;8.522;2023-03-04T16:52:30;79073.78;;;-3.47;69.65
13954;BME280;7049;49.444;8.522;2023-03-04T16:57:32;79084.25;;;-3.47;70.14
13954;BME280;7049;49.444;8.522;2023-03-04T17:02:33;79094.72;;;-3.47;70.57
13954;BME280;7049;49.444;8.522;2023-03-04T17:07:36;79090.53;;;-3.47;70.72
13954;BME280;7049;49.444;8.522;2023-03-04T17:12:39;79090.53;;;-3.47;71.06
13954;BME280;7049;49.444;8.522;2023-03-04T17:17:42;79090.53;;;-3.47;71.30
13954;BME280;7049;49.444;8.522;2023-03-04T17:22:45;79094.72;;;-3.47;71.18
13954;BME280;7049;49.444;8.522;2023-03-04T17:27:46;79096.81;;;-3.47;71.46
13954;BME280;7049;49.444;8.522;2023-03-04T17:32:47;79094.72;;;-3.47;71.24
13954;BME280;7049;49.444;8.522;2023-03-04T17:37:50;79098.91;;;-3.47;71.18
13954;BME280;7049;49.444;8.522;2023-03-04T17:42:52;79098.91;;;-3.47;71.02
13954;BME280;7049;49.444;8.522;2023-03-04T17:47:53;79098.91;;;-3.47;71.46
13954;BME280;7049;49.444;8.522;2023-03-04T17:52:56;79105.19;;;-3.47;71.39
13954;BME280;7049;49.444;8.522;2023-03-04T17:57:58;79098.91;;;-3.47;71.55
13954;BME280;7049;49.444;8.522;2023-03-04T18:02:59;79096.81;;;-3.47;70.99
13954;BME280;7049;49.444;8.522;2023-03-04T18:08:02;79092.63;;;-3.47;70.76
13954;BME280;7049;49.444;8.522;2023-03-04T18:13:04;79080.06;;;-3.47;70.18
13954;BME280;7049;49.444;8.522;2023-03-04T18:18:05;79090.53;;;-3.47;70.46
13954;BME280;7049;49.444;8.522;2023-03-04T18:23:08;79090.53;;;-3.47;70.99
13954;BME280;7049;49.444;8.522;2023-03-04T18:28:10;79086.34;;;-3.47;71.60
13954;BME280;7049;49.444;8.522;2023-03-04T18:33:11;79094.72;;;-3.47;71.54
13954;BME280;7049;49.444;8.522;2023-03-04T18:38:14;79103.09;;;-3.47;71.78
13954;BME280;7049;49.444;8.522;2023-03-04T18:43:15;79101.00;;;-3.47;71.53
13954;BME280;7049;49.444;8.522;2023-03-04T18:48:17;79098.91;;;-3.47;71.50
13954;BME280;7049;49.444;8.522;2023-03-04T18:53:20;79103.09;;;-3.47;71.65
13954;BME280;7049;49.444;8.522;2023-03-04T18:58:22;79094.72;;;-3.47;70.84
13954;BME280;7049;49.444;8.522;2023-03-04T19:03:23;79113.56;;;-3.47;71.27
13954;BME280;7049;49.444;8.522;2023-03-04T19:08:26;79101.00;;;-3.47;71.28
13954;BME280;7049;49.444;8.522;2023-03-04T19:13:28;79109.38;;;-3.47;71.55
13954;BME280;7049;49.444;8.522;2023-03-04T19:18:29;79103.09;;;-3.47;70.96
13954;BME280;7049;49.444;8.522;2023-03-04T19:23:32;79103.09;;;-3.47;70.75
13954;BME280;7049;49.444;8.522;2023-03-04T19:28:34;79107.28;;;-3.47;71.31
13954;BME280;7049;49.444;8.522;2023-03-04T19:33:37;79111.47;;;-3.47;71.17
13954;BME280;7049;49.444;8.522;2023-03-04T19:38:40;79111.47;;;-3.47;71.67
13954;BME280;7049;49.444;8.522;2023-03-04T19:43:43;79107.28;;;-3.47;71.67
13954;BME280;7049;49.444;8.522;2023-03-04T19:48:45;79098.91;;;-3.47;71.25
13954;BME280;7049;49.444;8.522;2023-03-04T19:53:50;79098.91;;;-3.47;71.36
13954;BME280;7049;49.444;8.522;2023-03-04T19:58:53;79098.91;;;-3.47;71.86
13954;BME280;7049;49.444;8.522;2023-03-04T20:03:58;79098.91;;;-3.47;71.95
13954;BME280;7049;49.444;8.522;2023-03-04T20:09:01;79096.81;;;-3.47;72.11
13954;BME280;7049;49.444;8.522;2023-03-04T20:14:03;79105.19;;;-3.47;72.64
13954;BME280;7049;49.444;8.522;2023-03-04T20:19:04;79113.56;;;-3.47;72.81
13954;BME280;7049;49.444;8.522;2023-03-04T20:24:07;79115.66;;;-3.47;73.18
13954;BME280;7049;49.444;8.522;2023-03-04T20:29:08;79115.66;;;-3.47;73.59
13954;BME280;7049;49.444;8.522;2023-03-04T20:34:10;79111.47;;;-3.47;74.18
13954;BME280;7049;49.444;8.522;2023-03-04T20:39:13;79115.66;;;-3.47;74.16
13954;BME280;7049;49.444;8.522;2023-03-04T20:44:15;79124.03;;;-3.47;74.54
13954;BME280;7049;49.444;8.522;2023-03-04T20:49:17;79121.94;;;-3.47;74.47
13954;BME280;7049;49.444;8.522;2023-03-04T20:54:23;79119.84;;;-3.47;75.02
13954;BME280;7049;49.444;8.522;2023-03-04T20:59:25;79111.47;;;-3.47;74.59
13954;BME280;7049;49.444;8.522;2023-03-04T21:04:26;79107.28;;;-3.47;74.68
13954;BME280;7049;49.444;8.522;2023-03-04T21:09:29;79107.28;;;-3.47;75.12
13954;BME280;7049;49.444;8.522;2023-03-04T21:14:31;79111.47;;;-3.47;75.69
13954;BME280;7049;49.444;8.522;2023-03-04T21:19:35;79107.28;;;-3.47;76.26
13954;BME280;7049;49.444;8.522;2023-03-04T21:24:42;79105.19;;;-3.47;77.38
13954;BME280;7049;49.444;8.522;2023-03-04T21:29:43;79103.09;;;-3.47;78.00
13954;BME280;7049;49.444;8.522;2023-03-04T21:34:46;79103.09;;;-3.47;78.32
13954;BME280;7049;49.444;8.522;2023-03-04T21:39:52;79107.28;;;-3.47;78.75
13954;BME280;7049;49.444;8.522;2023-03-04T21:44:54;79109.38;;;-3.47;79.09
13954;BME280;7049;49.444;8.522;2023-03-04T21:49:55;79103.09;;;-3.47;78.42
13954;BME280;7049;49.444;8.522;2023-03-04T21:54:58;79094.72;;;-3.47;78.28
13954;BME280;7049;49.444;8.522;2023-03-04T21:59:59;79090.53;;;-3.47;77.80
13954;BME280;7049;49.444;8.522;2023-03-04T22:05:01;79096.81;;;-3.47;78.04
13954;BME280;7049;49.444;8.522;2023-03-04T22:10:04;79088.44;;;-3.47;77.94
13954;BME280;7049;49.444;8.522;2023-03-04T22:15:07;79090.53;;;-3.47;77.92
13954;BME280;7049;49.444;8.522;2023-03-04T22:20:11;79094.72;;;-3.47;78.23
13954;BME280;7049;49.444;8.522;2023-03-04T22:25:15;79084.25;;;-3.47;78.17
13954;BME280;7049;49.444;8.522;2023-03-04T22:30:17;79086.34;;;-3.47;78.19
13954;BME280;7049;49.444;8.522;2023-03-04T22:35:18;79082.16;;;-3.47;78.32
13954;BME280;7049;49.444;8.522;2023-03-04T22:40:21;79086.34;;;-3.47;78.24
13954;BME280;7049;49.444;8.522;2023-03-04T22:45:23;79080.06;;;-3.47;78.38
13954;BME280;7049;49.444;8.522;2023-03-04T22:50:27;79071.69;;;-3.47;78.06
13954;BME280;7049;49.444;8.522;2023-03-04T22:55:30;79075.88;;;-3.47;78.06
13954;BME280;7049;49.444;8.522;2023-03-04T23:05:45;79080.06;;;-3.47;78.41
13954;BME280;7049;49.444;8.522;2023-03-04T23:10:48;79080.06;;;-3.47;78.88
13954;BME280;7049;49.444;8.522;2023-03-04T23:15:49;79082.16;;;-3.47;79.59
13954;BME280;7049;49.444;8.522;2023-03-04T23:20:51;79082.16;;;-3.47;79.87
13954;BME280;7049;49.444;8.522;2023-03-04T23:25:54;79084.25;;;-3.47;80.40
13954;BME280;7049;49.444;8.522;2023-03-04T23:30:55;79086.34;;;-3.47;81.06
13954;BME280;7049;49.444;8.522;2023-03-04T23:35:57;79090.53;;;-3.47;81.06
13954;BME280;7049;49.444;8.522;2023-03-04T23:40:59;79084.25;;;-3.47;81.15
13954;BME280;7049;49.444;8.522;2023-03-04T23:46:01;79077.97;;;-3.47;80.96
13954;BME280;7049;49.444;8.522;2023-03-04T23:51:03;79077.97;;;-3.47;81.18
13954;BME280;7049;49.444;8.522;2023-03-04T23:56:08;79077.97;;;-3.47;81.13
